sensor_id;sensor_type;location;lat;lon;timestamp;temperature;humidity
39025;DHT22;24789;51.982;5.876;2022-07-04T00:00:41;16.60;81.30
39025;DHT22;24789;51.982;5.876;2022-07-04T00:01:42;16.60;81.40
39025;DHT22;24789;51.982;5.876;2022-07-04T00:02:44;16.60;81.40
39025;DHT22;24789;51.982;5.876;2022-07-04T00:03:44;16.60;81.50
39025;DHT22;24789;51.982;5.876;2022-07-04T00:04:45;16.60;81.50
39025;DHT22;24789;51.982;5.876;2022-07-04T00:05:46;16.50;81.50
39025;DHT22;24789;51.982;5.876;2022-07-04T00:06:47;16.50;81.70
39025;DHT22;24789;51.982;5.876;2022-07-04T00:07:49;16.50;81.80
39025;DHT22;24789;51.982;5.876;2022-07-04T00:08:50;16.50;81.90
39025;DHT22;24789;51.982;5.876;2022-07-04T00:09:51;16.40;81.90
39025;DHT22;24789;51.982;5.876;2022-07-04T00:10:51;16.40;81.90
39025;DHT22;24789;51.982;5.876;2022-07-04T00:11:52;16.40;82.60
39025;DHT22;24789;51.982;5.876;2022-07-04T00:12:53;16.40;82.00
39025;DHT22;24789;51.982;5.876;2022-07-04T00:13:53;16.40;82.10
39025;DHT22;24789;51.982;5.876;2022-07-04T00:14:54;16.40;82.20
39025;DHT22;24789;51.982;5.876;2022-07-04T00:15:55;16.40;82.20
39025;DHT22;24789;51.982;5.876;2022-07-04T00:16:56;16.40;82.30
39025;DHT22;24789;51.982;5.876;2022-07-04T00:17:56;16.40;82.30
39025;DHT22;24789;51.982;5.876;2022-07-04T00:18:57;16.30;82.30
39025;DHT22;24789;51.982;5.876;2022-07-04T00:19:57;16.30;82.30
39025;DHT22;24789;51.982;5.876;2022-07-04T00:20:58;16.40;82.50
39025;DHT22;24789;51.982;5.876;2022-07-04T00:21:59;16.30;82.50
39025;DHT22;24789;51.982;5.876;2022-07-04T00:23:00;16.30;82.60
39025;DHT22;24789;51.982;5.876;2022-07-04T00:24:01;16.30;82.70
39025;DHT22;24789;51.982;5.876;2022-07-04T00:25:02;16.30;82.70
39025;DHT22;24789;51.982;5.876;2022-07-04T00:26:02;16.30;82.80
39025;DHT22;24789;51.982;5.876;2022-07-04T00:27:03;16.20;82.80
39025;DHT22;24789;51.982;5.876;2022-07-04T00:28:04;16.20;82.90
39025;DHT22;24789;51.982;5.876;2022-07-04T00:29:05;16.20;82.90
39025;DHT22;24789;51.982;5.876;2022-07-04T00:30:06;16.20;82.90
39025;DHT22;24789;51.982;5.876;2022-07-04T00:31:06;16.20;83.00
39025;DHT22;24789;51.982;5.876;2022-07-04T00:32:08;16.20;83.00
39025;DHT22;24789;51.982;5.876;2022-07-04T00:33:12;16.10;83.10
39025;DHT22;24789;51.982;5.876;2022-07-04T00:34:13;16.20;83.20
39025;DHT22;24789;51.982;5.876;2022-07-04T00:35:14;16.10;83.20
39025;DHT22;24789;51.982;5.876;2022-07-04T00:36:15;16.10;83.30
39025;DHT22;24789;51.982;5.876;2022-07-04T00:37:15;16.00;83.40
39025;DHT22;24789;51.982;5.876;2022-07-04T00:38:16;16.00;83.50
39025;DHT22;24789;51.982;5.876;2022-07-04T00:39:17;16.00;83.60
39025;DHT22;24789;51.982;5.876;2022-07-04T00:40:18;16.00;83.70
39025;DHT22;24789;51.982;5.876;2022-07-04T00:41:19;16.00;83.80
39025;DHT22;24789;51.982;5.876;2022-07-04T00:42:19;15.90;83.80
39025;DHT22;24789;51.982;5.876;2022-07-04T00:43:22;15.90;83.90
39025;DHT22;24789;51.982;5.876;2022-07-04T00:44:23;15.90;83.90
39025;DHT22;24789;51.982;5.876;2022-07-04T00:45:24;15.90;84.00
39025;DHT22;24789;51.982;5.876;2022-07-04T00:46:25;15.90;84.10
39025;DHT22;24789;51.982;5.876;2022-07-04T00:47:25;15.80;84.30
39025;DHT22;24789;51.982;5.876;2022-07-04T00:48:26;15.80;84.30
39025;DHT22;24789;51.982;5.876;2022-07-04T00:49:27;15.80;84.30
39025;DHT22;24789;51.982;5.876;2022-07-04T00:50:28;15.80;84.50
39025;DHT22;24789;51.982;5.876;2022-07-04T00:51:29;15.80;84.50
39025;DHT22;24789;51.982;5.876;2022-07-04T00:52:29;15.80;84.50
39025;DHT22;24789;51.982;5.876;2022-07-04T00:53:32;15.80;84.60
39025;DHT22;24789;51.982;5.876;2022-07-04T00:54:33;15.80;84.60
39025;DHT22;24789;51.982;5.876;2022-07-04T00:55:34;15.80;84.60
39025;DHT22;24789;51.982;5.876;2022-07-04T00:56:39;15.80;84.60
39025;DHT22;24789;51.982;5.876;2022-07-04T00:57:40;15.80;84.60
39025;DHT22;24789;51.982;5.876;2022-07-04T00:58:41;15.70;84.60
39025;DHT22;24789;51.982;5.876;2022-07-04T00:59:42;15.80;84.70
39025;DHT22;24789;51.982;5.876;2022-07-04T01:00:42;15.80;84.70
39025;DHT22;24789;51.982;5.876;2022-07-04T01:01:43;15.80;84.70
39025;DHT22;24789;51.982;5.876;2022-07-04T01:02:44;15.80;84.70
39025;DHT22;24789;51.982;5.876;2022-07-04T01:03:45;15.80;84.70
39025;DHT22;24789;51.982;5.876;2022-07-04T01:04:46;15.80;84.80
39025;DHT22;24789;51.982;5.876;2022-07-04T01:05:47;15.70;84.70
39025;DHT22;24789;51.982;5.876;2022-07-04T01:06:48;15.70;84.80
39025;DHT22;24789;51.982;5.876;2022-07-04T01:07:50;15.70;84.90
39025;DHT22;24789;51.982;5.876;2022-07-04T01:08:51;15.70;85.00
39025;DHT22;24789;51.982;5.876;2022-07-04T01:09:52;15.70;85.00
39025;DHT22;24789;51.982;5.876;2022-07-04T01:10:53;15.60;85.10
39025;DHT22;24789;51.982;5.876;2022-07-04T01:11:54;15.60;85.20
39025;DHT22;24789;51.982;5.876;2022-07-04T01:12:54;15.60;85.30
39025;DHT22;24789;51.982;5.876;2022-07-04T01:13:56;15.60;85.40
39025;DHT22;24789;51.982;5.876;2022-07-04T01:14:57;15.50;85.40
39025;DHT22;24789;51.982;5.876;2022-07-04T01:15:58;15.50;85.60
39025;DHT22;24789;51.982;5.876;2022-07-04T01:16:59;15.60;85.60
39025;DHT22;24789;51.982;5.876;2022-07-04T01:17:59;15.50;85.60
39025;DHT22;24789;51.982;5.876;2022-07-04T01:19:00;15.50;85.60
39025;DHT22;24789;51.982;5.876;2022-07-04T01:20:01;15.50;85.60
39025;DHT22;24789;51.982;5.876;2022-07-04T01:21:03;15.50;85.60
39025;DHT22;24789;51.982;5.876;2022-07-04T01:22:05;15.50;85.60
39025;DHT22;24789;51.982;5.876;2022-07-04T01:23:06;15.50;85.70
39025;DHT22;24789;51.982;5.876;2022-07-04T01:24:11;15.50;85.70
39025;DHT22;24789;51.982;5.876;2022-07-04T01:25:12;15.50;85.70
39025;DHT22;24789;51.982;5.876;2022-07-04T01:26:14;15.60;85.70
39025;DHT22;24789;51.982;5.876;2022-07-04T01:27:16;15.60;85.60
39025;DHT22;24789;51.982;5.876;2022-07-04T01:28:20;15.60;85.70
39025;DHT22;24789;51.982;5.876;2022-07-04T01:29:21;15.60;85.70
39025;DHT22;24789;51.982;5.876;2022-07-04T01:30:22;15.60;85.70
39025;DHT22;24789;51.982;5.876;2022-07-04T01:31:22;15.50;85.70
39025;DHT22;24789;51.982;5.876;2022-07-04T01:32:23;15.50;85.70
39025;DHT22;24789;51.982;5.876;2022-07-04T01:33:24;15.50;85.80
39025;DHT22;24789;51.982;5.876;2022-07-04T01:34:24;15.50;85.90
39025;DHT22;24789;51.982;5.876;2022-07-04T01:35:25;15.50;86.00
39025;DHT22;24789;51.982;5.876;2022-07-04T01:36:26;15.50;86.10
39025;DHT22;24789;51.982;5.876;2022-07-04T01:37:27;15.40;86.10
39025;DHT22;24789;51.982;5.876;2022-07-04T01:38:27;15.40;86.20
39025;DHT22;24789;51.982;5.876;2022-07-04T01:39:29;15.40;86.20
39025;DHT22;24789;51.982;5.876;2022-07-04T01:40:29;15.40;86.30
39025;DHT22;24789;51.982;5.876;2022-07-04T01:41:34;15.40;86.40
39025;DHT22;24789;51.982;5.876;2022-07-04T01:42:35;15.40;86.40
39025;DHT22;24789;51.982;5.876;2022-07-04T01:43:36;15.40;86.40
39025;DHT22;24789;51.982;5.876;2022-07-04T01:44:37;15.40;86.40
39025;DHT22;24789;51.982;5.876;2022-07-04T01:45:37;15.40;86.50
39025;DHT22;24789;51.982;5.876;2022-07-04T01:46:38;15.40;86.60
39025;DHT22;24789;51.982;5.876;2022-07-04T01:47:39;15.40;86.60
39025;DHT22;24789;51.982;5.876;2022-07-04T01:48:42;15.30;86.60
39025;DHT22;24789;51.982;5.876;2022-07-04T01:49:42;15.40;86.70
39025;DHT22;24789;51.982;5.876;2022-07-04T01:50:43;15.30;86.70
39025;DHT22;24789;51.982;5.876;2022-07-04T01:51:50;15.30;86.70
39025;DHT22;24789;51.982;5.876;2022-07-04T01:52:52;15.30;86.80
39025;DHT22;24789;51.982;5.876;2022-07-04T01:53:53;15.30;86.80
39025;DHT22;24789;51.982;5.876;2022-07-04T01:54:54;15.30;86.90
39025;DHT22;24789;51.982;5.876;2022-07-04T01:55:54;15.30;86.90
39025;DHT22;24789;51.982;5.876;2022-07-04T01:56:55;15.30;87.00
39025;DHT22;24789;51.982;5.876;2022-07-04T01:57:56;15.30;87.00
39025;DHT22;24789;51.982;5.876;2022-07-04T01:58:57;15.30;87.10
39025;DHT22;24789;51.982;5.876;2022-07-04T01:59:59;15.20;87.00
39025;DHT22;24789;51.982;5.876;2022-07-04T02:01:18;15.20;87.10
39025;DHT22;24789;51.982;5.876;2022-07-04T02:02:31;15.20;87.10
39025;DHT22;24789;51.982;5.876;2022-07-04T02:03:32;15.20;87.10
39025;DHT22;24789;51.982;5.876;2022-07-04T02:04:33;15.20;87.20
39025;DHT22;24789;51.982;5.876;2022-07-04T02:05:35;15.20;87.30
39025;DHT22;24789;51.982;5.876;2022-07-04T02:06:37;15.10;87.40
39025;DHT22;24789;51.982;5.876;2022-07-04T02:07:38;15.20;87.50
39025;DHT22;24789;51.982;5.876;2022-07-04T02:08:38;15.20;87.60
39025;DHT22;24789;51.982;5.876;2022-07-04T02:09:58;15.20;87.60
39025;DHT22;24789;51.982;5.876;2022-07-04T02:10:58;15.20;87.60
39025;DHT22;24789;51.982;5.876;2022-07-04T02:11:59;15.20;87.50
39025;DHT22;24789;51.982;5.876;2022-07-04T02:13:19;15.20;87.50
39025;DHT22;24789;51.982;5.876;2022-07-04T02:14:19;15.20;87.50
39025;DHT22;24789;51.982;5.876;2022-07-04T02:15:20;15.20;87.50
39025;DHT22;24789;51.982;5.876;2022-07-04T02:16:21;15.20;87.60
39025;DHT22;24789;51.982;5.876;2022-07-04T02:17:21;15.20;87.60
39025;DHT22;24789;51.982;5.876;2022-07-04T02:18:22;15.20;87.60
39025;DHT22;24789;51.982;5.876;2022-07-04T02:19:23;15.20;87.70
39025;DHT22;24789;51.982;5.876;2022-07-04T02:20:24;15.20;87.80
39025;DHT22;24789;51.982;5.876;2022-07-04T02:21:25;15.10;87.80
39025;DHT22;24789;51.982;5.876;2022-07-04T02:22:26;15.10;87.80
39025;DHT22;24789;51.982;5.876;2022-07-04T02:23:26;15.10;87.90
39025;DHT22;24789;51.982;5.876;2022-07-04T02:24:27;15.10;88.10
39025;DHT22;24789;51.982;5.876;2022-07-04T02:25:28;15.10;88.20
39025;DHT22;24789;51.982;5.876;2022-07-04T02:26:29;15.10;88.20
39025;DHT22;24789;51.982;5.876;2022-07-04T02:27:29;15.00;88.20
39025;DHT22;24789;51.982;5.876;2022-07-04T02:28:30;15.10;88.30
39025;DHT22;24789;51.982;5.876;2022-07-04T02:29:31;15.00;88.30
39025;DHT22;24789;51.982;5.876;2022-07-04T02:30:32;15.00;88.40
39025;DHT22;24789;51.982;5.876;2022-07-04T02:31:32;15.00;88.40
39025;DHT22;24789;51.982;5.876;2022-07-04T02:32:33;15.00;88.50
39025;DHT22;24789;51.982;5.876;2022-07-04T02:33:34;15.00;88.50
39025;DHT22;24789;51.982;5.876;2022-07-04T02:34:35;15.00;88.60
39025;DHT22;24789;51.982;5.876;2022-07-04T02:35:35;15.00;88.60
39025;DHT22;24789;51.982;5.876;2022-07-04T02:36:36;15.00;88.60
39025;DHT22;24789;51.982;5.876;2022-07-04T02:37:37;15.00;88.70
39025;DHT22;24789;51.982;5.876;2022-07-04T02:38:38;15.00;88.70
39025;DHT22;24789;51.982;5.876;2022-07-04T02:39:39;15.00;88.70
39025;DHT22;24789;51.982;5.876;2022-07-04T02:40:40;15.00;88.70
39025;DHT22;24789;51.982;5.876;2022-07-04T02:41:43;15.00;88.80
39025;DHT22;24789;51.982;5.876;2022-07-04T02:42:44;15.00;88.80
39025;DHT22;24789;51.982;5.876;2022-07-04T02:43:44;15.00;88.80
39025;DHT22;24789;51.982;5.876;2022-07-04T02:44:45;15.00;88.80
39025;DHT22;24789;51.982;5.876;2022-07-04T02:45:46;15.00;88.90
39025;DHT22;24789;51.982;5.876;2022-07-04T02:46:47;15.00;89.00
39025;DHT22;24789;51.982;5.876;2022-07-04T02:47:47;14.90;89.10
39025;DHT22;24789;51.982;5.876;2022-07-04T02:48:48;14.90;89.20
39025;DHT22;24789;51.982;5.876;2022-07-04T02:49:49;14.90;89.20
39025;DHT22;24789;51.982;5.876;2022-07-04T02:50:50;14.90;89.30
39025;DHT22;24789;51.982;5.876;2022-07-04T02:51:50;14.90;89.30
39025;DHT22;24789;51.982;5.876;2022-07-04T02:52:51;14.90;89.40
39025;DHT22;24789;51.982;5.876;2022-07-04T02:53:52;14.90;89.50
39025;DHT22;24789;51.982;5.876;2022-07-04T02:54:53;14.90;89.50
39025;DHT22;24789;51.982;5.876;2022-07-04T02:55:54;14.90;89.50
39025;DHT22;24789;51.982;5.876;2022-07-04T02:56:54;14.90;89.60
39025;DHT22;24789;51.982;5.876;2022-07-04T02:57:55;14.90;89.60
39025;DHT22;24789;51.982;5.876;2022-07-04T02:58:56;14.90;89.60
39025;DHT22;24789;51.982;5.876;2022-07-04T02:59:57;14.90;89.60
39025;DHT22;24789;51.982;5.876;2022-07-04T03:00:57;14.90;89.60
39025;DHT22;24789;51.982;5.876;2022-07-04T03:01:58;14.90;89.70
39025;DHT22;24789;51.982;5.876;2022-07-04T03:02:59;14.90;89.60
39025;DHT22;24789;51.982;5.876;2022-07-04T03:04:00;14.90;89.60
39025;DHT22;24789;51.982;5.876;2022-07-04T03:05:00;14.90;89.60
39025;DHT22;24789;51.982;5.876;2022-07-04T03:06:01;15.00;89.60
39025;DHT22;24789;51.982;5.876;2022-07-04T03:07:02;14.90;89.60
39025;DHT22;24789;51.982;5.876;2022-07-04T03:08:03;14.90;89.80
39025;DHT22;24789;51.982;5.876;2022-07-04T03:09:03;14.90;89.90
39025;DHT22;24789;51.982;5.876;2022-07-04T03:10:04;14.90;90.00
39025;DHT22;24789;51.982;5.876;2022-07-04T03:11:05;14.80;90.00
39025;DHT22;24789;51.982;5.876;2022-07-04T03:12:06;14.80;90.00
39025;DHT22;24789;51.982;5.876;2022-07-04T03:13:09;14.80;90.00
39025;DHT22;24789;51.982;5.876;2022-07-04T03:14:10;14.80;90.00
39025;DHT22;24789;51.982;5.876;2022-07-04T03:15:10;14.80;90.00
39025;DHT22;24789;51.982;5.876;2022-07-04T03:16:11;14.80;90.10
39025;DHT22;24789;51.982;5.876;2022-07-04T03:17:12;14.90;90.10
39025;DHT22;24789;51.982;5.876;2022-07-04T03:18:14;14.80;90.10
39025;DHT22;24789;51.982;5.876;2022-07-04T03:19:14;14.90;90.10
39025;DHT22;24789;51.982;5.876;2022-07-04T03:20:17;14.90;90.10
39025;DHT22;24789;51.982;5.876;2022-07-04T03:21:18;14.80;90.10
39025;DHT22;24789;51.982;5.876;2022-07-04T03:22:19;14.80;90.10
39025;DHT22;24789;51.982;5.876;2022-07-04T03:23:20;14.80;90.10
39025;DHT22;24789;51.982;5.876;2022-07-04T03:24:21;14.80;90.20
39025;DHT22;24789;51.982;5.876;2022-07-04T03:25:21;14.80;90.20
39025;DHT22;24789;51.982;5.876;2022-07-04T03:26:23;14.80;90.20
39025;DHT22;24789;51.982;5.876;2022-07-04T03:27:24;14.80;90.20
39025;DHT22;24789;51.982;5.876;2022-07-04T03:28:25;14.80;90.20
39025;DHT22;24789;51.982;5.876;2022-07-04T03:29:26;14.80;90.20
39025;DHT22;24789;51.982;5.876;2022-07-04T03:30:26;14.80;90.20
39025;DHT22;24789;51.982;5.876;2022-07-04T03:31:28;14.80;90.30
39025;DHT22;24789;51.982;5.876;2022-07-04T03:32:29;14.80;90.30
39025;DHT22;24789;51.982;5.876;2022-07-04T03:33:30;14.80;90.30
39025;DHT22;24789;51.982;5.876;2022-07-04T03:34:31;14.80;90.30
39025;DHT22;24789;51.982;5.876;2022-07-04T03:35:32;14.80;90.30
39025;DHT22;24789;51.982;5.876;2022-07-04T03:36:32;14.80;90.30
39025;DHT22;24789;51.982;5.876;2022-07-04T03:37:33;14.80;90.60
39025;DHT22;24789;51.982;5.876;2022-07-04T03:38:34;14.80;90.30
39025;DHT22;24789;51.982;5.876;2022-07-04T03:39:34;14.80;90.30
39025;DHT22;24789;51.982;5.876;2022-07-04T03:40:35;14.80;90.30
39025;DHT22;24789;51.982;5.876;2022-07-04T03:41:36;14.80;90.40
39025;DHT22;24789;51.982;5.876;2022-07-04T03:42:37;14.80;90.40
39025;DHT22;24789;51.982;5.876;2022-07-04T03:43:37;14.80;90.40
39025;DHT22;24789;51.982;5.876;2022-07-04T03:44:38;14.80;90.40
39025;DHT22;24789;51.982;5.876;2022-07-04T03:45:39;14.80;90.40
39025;DHT22;24789;51.982;5.876;2022-07-04T03:46:39;14.80;90.40
39025;DHT22;24789;51.982;5.876;2022-07-04T03:47:40;14.80;90.40
39025;DHT22;24789;51.982;5.876;2022-07-04T03:48:42;14.80;90.40
39025;DHT22;24789;51.982;5.876;2022-07-04T03:49:43;14.80;90.40
39025;DHT22;24789;51.982;5.876;2022-07-04T03:50:45;14.90;90.50
39025;DHT22;24789;51.982;5.876;2022-07-04T03:51:45;14.90;90.40
39025;DHT22;24789;51.982;5.876;2022-07-04T03:52:46;14.90;90.40
39025;DHT22;24789;51.982;5.876;2022-07-04T03:53:47;14.90;90.40
39025;DHT22;24789;51.982;5.876;2022-07-04T03:54:47;14.90;90.40
39025;DHT22;24789;51.982;5.876;2022-07-04T03:55:48;14.90;90.40
39025;DHT22;24789;51.982;5.876;2022-07-04T03:56:49;14.90;90.40
39025;DHT22;24789;51.982;5.876;2022-07-04T03:57:50;14.90;90.40
39025;DHT22;24789;51.982;5.876;2022-07-04T03:58:50;14.90;90.50
39025;DHT22;24789;51.982;5.876;2022-07-04T03:59:51;14.90;90.50
39025;DHT22;24789;51.982;5.876;2022-07-04T04:00:52;14.90;90.50
39025;DHT22;24789;51.982;5.876;2022-07-04T04:01:53;15.00;90.50
39025;DHT22;24789;51.982;5.876;2022-07-04T04:02:53;15.00;90.50
39025;DHT22;24789;51.982;5.876;2022-07-04T04:03:54;15.00;90.50
39025;DHT22;24789;51.982;5.876;2022-07-04T04:05:13;15.00;90.50
39025;DHT22;24789;51.982;5.876;2022-07-04T04:06:31;14.90;90.50
39025;DHT22;24789;51.982;5.876;2022-07-04T04:07:31;15.00;90.50
39025;DHT22;24789;51.982;5.876;2022-07-04T04:08:32;15.00;90.50
39025;DHT22;24789;51.982;5.876;2022-07-04T04:09:35;15.00;90.50
39025;DHT22;24789;51.982;5.876;2022-07-04T04:10:36;15.00;90.60
39025;DHT22;24789;51.982;5.876;2022-07-04T04:11:36;15.00;90.60
39025;DHT22;24789;51.982;5.876;2022-07-04T04:12:37;15.00;90.60
39025;DHT22;24789;51.982;5.876;2022-07-04T04:13:38;15.00;90.60
39025;DHT22;24789;51.982;5.876;2022-07-04T04:14:39;15.10;90.60
39025;DHT22;24789;51.982;5.876;2022-07-04T04:15:39;15.10;90.60
39025;DHT22;24789;51.982;5.876;2022-07-04T04:16:40;15.10;90.60
39025;DHT22;24789;51.982;5.876;2022-07-04T04:17:43;15.10;90.60
39025;DHT22;24789;51.982;5.876;2022-07-04T04:18:43;15.10;90.60
39025;DHT22;24789;51.982;5.876;2022-07-04T04:19:44;15.20;90.60
39025;DHT22;24789;51.982;5.876;2022-07-04T04:20:45;15.20;90.60
39025;DHT22;24789;51.982;5.876;2022-07-04T04:21:46;15.20;90.60
39025;DHT22;24789;51.982;5.876;2022-07-04T04:22:46;15.20;90.60
39025;DHT22;24789;51.982;5.876;2022-07-04T04:23:47;15.30;90.60
39025;DHT22;24789;51.982;5.876;2022-07-04T04:24:48;15.30;90.50
39025;DHT22;24789;51.982;5.876;2022-07-04T04:25:49;15.30;90.50
39025;DHT22;24789;51.982;5.876;2022-07-04T04:26:50;15.40;90.50
39025;DHT22;24789;51.982;5.876;2022-07-04T04:27:50;15.40;90.40
39025;DHT22;24789;51.982;5.876;2022-07-04T04:28:51;15.40;90.40
39025;DHT22;24789;51.982;5.876;2022-07-04T04:29:51;15.40;90.30
39025;DHT22;24789;51.982;5.876;2022-07-04T04:30:54;15.50;90.30
39025;DHT22;24789;51.982;5.876;2022-07-04T04:31:55;15.50;90.30
39025;DHT22;24789;51.982;5.876;2022-07-04T04:32:56;15.50;90.30
39025;DHT22;24789;51.982;5.876;2022-07-04T04:33:57;15.50;90.30
39025;DHT22;24789;51.982;5.876;2022-07-04T04:34:58;15.60;90.60
39025;DHT22;24789;51.982;5.876;2022-07-04T04:36:02;15.60;90.30
39025;DHT22;24789;51.982;5.876;2022-07-04T04:37:03;15.60;90.30
39025;DHT22;24789;51.982;5.876;2022-07-04T04:38:03;15.70;90.20
39025;DHT22;24789;51.982;5.876;2022-07-04T04:39:04;15.70;90.20
39025;DHT22;24789;51.982;5.876;2022-07-04T04:40:05;15.70;90.20
39025;DHT22;24789;51.982;5.876;2022-07-04T04:41:06;15.70;90.10
39025;DHT22;24789;51.982;5.876;2022-07-04T04:42:07;15.70;90.10
39025;DHT22;24789;51.982;5.876;2022-07-04T04:43:08;15.80;90.10
39025;DHT22;24789;51.982;5.876;2022-07-04T04:44:08;15.80;90.10
39025;DHT22;24789;51.982;5.876;2022-07-04T04:45:09;15.80;90.00
39025;DHT22;24789;51.982;5.876;2022-07-04T04:46:10;15.80;90.00
39025;DHT22;24789;51.982;5.876;2022-07-04T04:47:11;15.80;90.00
39025;DHT22;24789;51.982;5.876;2022-07-04T04:48:12;15.80;90.00
39025;DHT22;24789;51.982;5.876;2022-07-04T04:49:13;15.80;90.00
39025;DHT22;24789;51.982;5.876;2022-07-04T04:50:13;15.80;90.00
39025;DHT22;24789;51.982;5.876;2022-07-04T04:51:16;15.80;90.00
39025;DHT22;24789;51.982;5.876;2022-07-04T04:52:17;15.80;90.00
39025;DHT22;24789;51.982;5.876;2022-07-04T04:53:18;15.90;90.00
39025;DHT22;24789;51.982;5.876;2022-07-04T04:54:18;15.90;90.00
39025;DHT22;24789;51.982;5.876;2022-07-04T04:55:19;15.90;90.00
39025;DHT22;24789;51.982;5.876;2022-07-04T04:56:20;15.90;90.00
39025;DHT22;24789;51.982;5.876;2022-07-04T04:57:21;16.00;90.00
39025;DHT22;24789;51.982;5.876;2022-07-04T04:58:22;16.00;89.90
39025;DHT22;24789;51.982;5.876;2022-07-04T04:59:23;16.00;89.90
39025;DHT22;24789;51.982;5.876;2022-07-04T05:00:24;16.10;89.90
39025;DHT22;24789;51.982;5.876;2022-07-04T05:01:26;16.10;89.80
39025;DHT22;24789;51.982;5.876;2022-07-04T05:02:27;16.20;89.80
39025;DHT22;24789;51.982;5.876;2022-07-04T05:03:28;16.20;89.60
39025;DHT22;24789;51.982;5.876;2022-07-04T05:04:28;16.20;89.50
39025;DHT22;24789;51.982;5.876;2022-07-04T05:05:29;16.40;89.50
39025;DHT22;24789;51.982;5.876;2022-07-04T05:06:30;16.40;89.40
39025;DHT22;24789;51.982;5.876;2022-07-04T05:07:31;16.40;89.20
39025;DHT22;24789;51.982;5.876;2022-07-04T05:08:34;16.50;89.10
39025;DHT22;24789;51.982;5.876;2022-07-04T05:09:34;16.50;89.00
39025;DHT22;24789;51.982;5.876;2022-07-04T05:10:35;16.60;88.90
39025;DHT22;24789;51.982;5.876;2022-07-04T05:11:36;16.70;88.80
39025;DHT22;24789;51.982;5.876;2022-07-04T05:12:37;16.80;88.70
39025;DHT22;24789;51.982;5.876;2022-07-04T05:13:38;16.90;88.50
39025;DHT22;24789;51.982;5.876;2022-07-04T05:14:38;16.90;88.30
39025;DHT22;24789;51.982;5.876;2022-07-04T05:15:39;17.00;88.10
39025;DHT22;24789;51.982;5.876;2022-07-04T05:16:40;17.10;88.00
39025;DHT22;24789;51.982;5.876;2022-07-04T05:17:40;17.10;87.80
39025;DHT22;24789;51.982;5.876;2022-07-04T05:18:41;17.20;87.60
39025;DHT22;24789;51.982;5.876;2022-07-04T05:19:42;17.30;87.50
39025;DHT22;24789;51.982;5.876;2022-07-04T05:20:43;17.40;87.40
39025;DHT22;24789;51.982;5.876;2022-07-04T05:21:43;17.40;87.10
39025;DHT22;24789;51.982;5.876;2022-07-04T05:22:44;17.50;87.00
39025;DHT22;24789;51.982;5.876;2022-07-04T05:23:45;17.50;86.80
39025;DHT22;24789;51.982;5.876;2022-07-04T05:24:45;17.60;86.70
39025;DHT22;24789;51.982;5.876;2022-07-04T05:25:47;17.60;86.40
39025;DHT22;24789;51.982;5.876;2022-07-04T05:26:49;17.70;86.30
39025;DHT22;24789;51.982;5.876;2022-07-04T05:27:49;17.70;86.20
39025;DHT22;24789;51.982;5.876;2022-07-04T05:28:50;17.80;86.10
39025;DHT22;24789;51.982;5.876;2022-07-04T05:29:51;17.90;86.10
39025;DHT22;24789;51.982;5.876;2022-07-04T05:30:51;17.90;85.90
39025;DHT22;24789;51.982;5.876;2022-07-04T05:31:52;18.00;86.40
39025;DHT22;24789;51.982;5.876;2022-07-04T05:32:53;18.00;85.50
39025;DHT22;24789;51.982;5.876;2022-07-04T05:33:54;18.10;85.40
39025;DHT22;24789;51.982;5.876;2022-07-04T05:34:55;18.20;85.40
39025;DHT22;24789;51.982;5.876;2022-07-04T05:35:56;18.20;85.20
39025;DHT22;24789;51.982;5.876;2022-07-04T05:36:57;18.20;85.00
39025;DHT22;24789;51.982;5.876;2022-07-04T05:37:58;18.20;84.90
39025;DHT22;24789;51.982;5.876;2022-07-04T05:38:58;18.30;84.90
39025;DHT22;24789;51.982;5.876;2022-07-04T05:39:59;18.20;84.70
39025;DHT22;24789;51.982;5.876;2022-07-04T05:41:01;18.20;84.70
39025;DHT22;24789;51.982;5.876;2022-07-04T05:42:02;18.20;84.70
39025;DHT22;24789;51.982;5.876;2022-07-04T05:43:03;18.20;84.70
39025;DHT22;24789;51.982;5.876;2022-07-04T05:44:04;18.30;84.60
39025;DHT22;24789;51.982;5.876;2022-07-04T05:45:05;18.30;84.50
39025;DHT22;24789;51.982;5.876;2022-07-04T05:46:07;18.40;84.50
39025;DHT22;24789;51.982;5.876;2022-07-04T05:47:08;18.50;84.50
39025;DHT22;24789;51.982;5.876;2022-07-04T05:48:09;18.50;84.40
39025;DHT22;24789;51.982;5.876;2022-07-04T05:49:09;18.50;84.30
39025;DHT22;24789;51.982;5.876;2022-07-04T05:50:10;18.60;84.30
39025;DHT22;24789;51.982;5.876;2022-07-04T05:51:11;18.60;84.20
39025;DHT22;24789;51.982;5.876;2022-07-04T05:52:12;18.60;84.10
39025;DHT22;24789;51.982;5.876;2022-07-04T05:53:12;18.60;84.10
39025;DHT22;24789;51.982;5.876;2022-07-04T05:54:13;18.70;84.10
39025;DHT22;24789;51.982;5.876;2022-07-04T05:55:14;18.70;84.10
39025;DHT22;24789;51.982;5.876;2022-07-04T05:56:15;18.70;84.10
39025;DHT22;24789;51.982;5.876;2022-07-04T05:57:16;18.70;84.00
39025;DHT22;24789;51.982;5.876;2022-07-04T05:58:16;18.70;84.00
39025;DHT22;24789;51.982;5.876;2022-07-04T05:59:17;18.70;84.00
39025;DHT22;24789;51.982;5.876;2022-07-04T06:00:18;18.70;84.00
39025;DHT22;24789;51.982;5.876;2022-07-04T06:01:19;18.70;84.00
39025;DHT22;24789;51.982;5.876;2022-07-04T06:02:19;18.70;84.10
39025;DHT22;24789;51.982;5.876;2022-07-04T06:03:20;18.70;84.00
39025;DHT22;24789;51.982;5.876;2022-07-04T06:04:21;18.70;84.00
39025;DHT22;24789;51.982;5.876;2022-07-04T06:05:22;18.70;84.10
39025;DHT22;24789;51.982;5.876;2022-07-04T06:06:22;18.80;84.10
39025;DHT22;24789;51.982;5.876;2022-07-04T06:07:23;18.80;84.10
39025;DHT22;24789;51.982;5.876;2022-07-04T06:08:24;18.80;84.10
39025;DHT22;24789;51.982;5.876;2022-07-04T06:09:25;18.80;84.10
39025;DHT22;24789;51.982;5.876;2022-07-04T06:10:25;18.80;84.10
39025;DHT22;24789;51.982;5.876;2022-07-04T06:11:26;18.80;84.10
39025;DHT22;24789;51.982;5.876;2022-07-04T06:12:27;18.70;84.00
39025;DHT22;24789;51.982;5.876;2022-07-04T06:13:28;18.70;84.10
39025;DHT22;24789;51.982;5.876;2022-07-04T06:14:29;18.70;84.30
39025;DHT22;24789;51.982;5.876;2022-07-04T06:15:29;18.60;84.30
39025;DHT22;24789;51.982;5.876;2022-07-04T06:16:30;18.60;84.40
39025;DHT22;24789;51.982;5.876;2022-07-04T06:17:31;18.60;84.40
39025;DHT22;24789;51.982;5.876;2022-07-04T06:18:33;18.60;84.50
39025;DHT22;24789;51.982;5.876;2022-07-04T06:19:35;18.60;84.50
39025;DHT22;24789;51.982;5.876;2022-07-04T06:20:38;18.60;84.50
39025;DHT22;24789;51.982;5.876;2022-07-04T06:21:42;18.50;84.50
39025;DHT22;24789;51.982;5.876;2022-07-04T06:22:46;18.50;84.50
39025;DHT22;24789;51.982;5.876;2022-07-04T06:23:48;18.50;84.50
39025;DHT22;24789;51.982;5.876;2022-07-04T06:24:50;18.50;84.40
39025;DHT22;24789;51.982;5.876;2022-07-04T06:25:52;18.50;84.40
39025;DHT22;24789;51.982;5.876;2022-07-04T06:26:58;18.50;84.40